Airfield :
LOGIN :

Register | Disclaimer

   EN    FR    IT 

 










Legend :    VFR   Marginal VFR   IFR   Intensive IFR   Very Intensive IFR
Visi :
Ceiling :
>= 8 km
>= 3000ft
5 to 8 km
1000 to 3000 ft
1500m to 5 km
500 to 1000 ft
800 to 1500m
200 to 500 ft
< 800m
< 200 ft
Symbols :   Thunderstorms  Fog  Heavy snow  Heavy precipitations  Wind > 20 kt
SIGMETs :     Misc.  Thunderstorms  Icing  Turbulence  Mountain Waves  Volcanic Ashes







- Airport Elevation : 348 ft
- IATA code : STN
- Download approach charts


EGSS - London Stansted

CURRENT METAR :
  • 211950Z AUTO 10004KT 060V140 6000 NCD 03/01 Q1018

EXPIRED METARs :
  • 211920Z AUTO 11005KT 050V180 6000 NCD 03/01 Q1018
  • 211850Z AUTO 13005KT 100V180 7000 NCD 03/01 Q1018
  • 211820Z AUTO 12005KT 080V160 7000 NCD 03/01 Q1017
  • 211750Z AUTO 10006KT 070V150 8000 NCD 03/01 Q1017
  • 211720Z AUTO 10006KT 080V150 9000 FEW033 03/01 Q1017
  • 211650Z AUTO 11006KT 9999 BKN030 03/01 Q1017

TAF TAF EGSS
Valid from the 21 at 18:00 until the 23 at 00:00 UTC


211703Z 2118/2224 14010KT 9999 SCT018
BECMG 2118/2121 VRB03KT 8000
PROB40
TEMPO 2123/2208 0200 FG FZFG VV///
BECMG 2205/2208 4000 BR OVC003
PROB30
TEMPO 2208/2211 0300 DZ FG OVC000
BECMG 2211/2214 7000 NSW SCT006
TEMPO 2214/2218 9999 BKN006
PROB30
TEMPO 2214/2218 4000 BR
PROB40
TEMPO 2218/2224 4000 BR
ATIS : +44 1279 669 325
No reported NOTAMs for that airfield.



MET'MAP, your aeronautical weather chart ! - Copyright ORBIFLY December 2007 - Disclaimer

ORBIFLY MET'MAP TEAM :

Programming & Development : Alexandra Zaïnal
Concept & Development : Baudouin d'Aumeries
Co-Development & Prog : Marc-Olivier Méhu
Technical & hardware support : Manuel Goepfert

Contact : metmap@orbifly.com




SOURCES & CREDITS :

   NOAA